sensor_id;sensor_type;location;lat;lon;timestamp;pressure;altitude;pressure_sealevel;temperature;humidity
11099;BME280;12223;42.650;23.364;2023-06-24T00:00:08;94735.69;;;22.27;100.00
11099;BME280;12223;42.650;23.364;2023-06-24T00:02:37;94727.91;;;22.25;100.00
11099;BME280;12223;42.650;23.364;2023-06-24T00:05:04;94719.47;;;22.13;100.00
11099;BME280;12223;42.650;23.364;2023-06-24T00:07:33;94734.75;;;22.18;100.00
11099;BME280;12223;42.650;23.364;2023-06-24T00:10:12;94735.03;;;22.16;100.00
11099;BME280;12223;42.650;23.364;2023-06-24T00:12:39;94738.69;;;22.07;100.00
11099;BME280;12223;42.650;23.364;2023-06-24T00:15:07;94722.63;;;22.01;100.00
11099;BME280;12223;42.650;23.364;2023-06-24T00:17:35;94727.53;;;21.94;100.00
11099;BME280;12223;42.650;23.364;2023-06-24T00:20:03;94722.63;;;22.01;100.00
11099;BME280;12223;42.650;23.364;2023-06-24T00:22:33;94722.13;;;21.99;100.00
11099;BME280;12223;42.650;23.364;2023-06-24T00:24:59;94729.41;;;21.99;100.00
11099;BME280;12223;42.650;23.364;2023-06-24T00:27:28;94723.06;;;22.09;100.00
11099;BME280;12223;42.650;23.364;2023-06-24T00:29:55;94734.41;;;22.05;100.00
11099;BME280;12223;42.650;23.364;2023-06-24T00:32:21;94744.28;;;22.10;100.00
11099;BME280;12223;42.650;23.364;2023-06-24T00:34:48;94729.50;;;22.08;100.00
11099;BME280;12223;42.650;23.364;2023-06-24T00:37:15;94742.41;;;22.11;100.00
11099;BME280;12223;42.650;23.364;2023-06-24T00:39:42;94736.56;;;22.03;100.00
11099;BME280;12223;42.650;23.364;2023-06-24T00:42:09;94734.78;;;21.99;100.00
11099;BME280;12223;42.650;23.364;2023-06-24T00:44:37;94734.69;;;22.04;100.00
11099;BME280;12223;42.650;23.364;2023-06-24T00:47:05;94726.19;;;21.97;100.00
11099;BME280;12223;42.650;23.364;2023-06-24T00:49:33;94729.69;;;21.97;100.00
11099;BME280;12223;42.650;23.364;2023-06-24T00:52:00;94724.22;;;22.02;100.00
11099;BME280;12223;42.650;23.364;2023-06-24T00:54:27;94728.06;;;21.96;100.00
11099;BME280;12223;42.650;23.364;2023-06-24T00:56:57;94723.53;;;21.92;100.00
11099;BME280;12223;42.650;23.364;2023-06-24T00:59:26;94724.13;;;21.89;100.00
11099;BME280;12223;42.650;23.364;2023-06-24T01:01:56;94720.78;;;21.78;100.00
11099;BME280;12223;42.650;23.364;2023-06-24T01:04:29;94715.97;;;21.75;100.00
11099;BME280;12223;42.650;23.364;2023-06-24T01:06:59;94708.34;;;21.63;100.00
11099;BME280;12223;42.650;23.364;2023-06-24T01:09:26;94706.00;;;21.57;100.00
11099;BME280;12223;42.650;23.364;2023-06-24T01:11:53;94698.63;;;21.49;100.00
11099;BME280;12223;42.650;23.364;2023-06-24T01:14:20;94695.56;;;21.37;100.00
11099;BME280;12223;42.650;23.364;2023-06-24T01:16:53;94695.97;;;21.44;100.00
11099;BME280;12223;42.650;23.364;2023-06-24T01:19:43;94706.72;;;21.44;100.00
11099;BME280;12223;42.650;23.364;2023-06-24T01:22:28;94698.78;;;21.34;100.00
11099;BME280;12223;42.650;23.364;2023-06-24T01:25:08;94694.56;;;21.27;100.00
11099;BME280;12223;42.650;23.364;2023-06-24T01:28:07;94690.34;;;21.21;100.00
11099;BME280;12223;42.650;23.364;2023-06-24T01:30:54;94683.97;;;21.17;100.00
11099;BME280;12223;42.650;23.364;2023-06-24T01:33:32;94690.81;;;21.05;100.00
11099;BME280;12223;42.650;23.364;2023-06-24T01:36:03;94683.25;;;21.07;100.00
11099;BME280;12223;42.650;23.364;2023-06-24T01:38:38;94680.88;;;21.05;100.00
11099;BME280;12223;42.650;23.364;2023-06-24T01:41:09;94676.56;;;21.04;100.00
11099;BME280;12223;42.650;23.364;2023-06-24T01:43:37;94673.19;;;20.94;100.00
11099;BME280;12223;42.650;23.364;2023-06-24T01:46:06;94687.06;;;21.01;100.00
11099;BME280;12223;42.650;23.364;2023-06-24T01:48:37;94693.53;;;21.00;100.00
11099;BME280;12223;42.650;23.364;2023-06-24T01:51:14;94703.31;;;20.91;100.00
11099;BME280;12223;42.650;23.364;2023-06-24T01:53:46;94715.13;;;20.90;100.00
11099;BME280;12223;42.650;23.364;2023-06-24T01:56:15;94735.00;;;20.88;100.00
11099;BME280;12223;42.650;23.364;2023-06-24T01:58:45;94718.00;;;20.98;100.00
11099;BME280;12223;42.650;23.364;2023-06-24T02:01:12;94724.09;;;21.04;100.00
11099;BME280;12223;42.650;23.364;2023-06-24T02:03:41;94721.88;;;21.11;100.00
11099;BME280;12223;42.650;23.364;2023-06-24T02:06:09;94730.22;;;21.09;100.00
11099;BME280;12223;42.650;23.364;2023-06-24T02:08:38;94734.19;;;21.17;100.00
11099;BME280;12223;42.650;23.364;2023-06-24T02:11:08;94738.41;;;21.23;100.00
11099;BME280;12223;42.650;23.364;2023-06-24T02:13:36;94733.19;;;21.08;100.00
11099;BME280;12223;42.650;23.364;2023-06-24T02:16:06;94729.81;;;20.97;100.00
11099;BME280;12223;42.650;23.364;2023-06-24T02:18:34;94728.03;;;20.87;100.00
11099;BME280;12223;42.650;23.364;2023-06-24T02:21:04;94726.19;;;20.83;100.00
11099;BME280;12223;42.650;23.364;2023-06-24T02:23:31;94727.56;;;20.80;100.00
11099;BME280;12223;42.650;23.364;2023-06-24T02:26:00;94725.72;;;20.76;100.00
11099;BME280;12223;42.650;23.364;2023-06-24T02:28:28;94731.22;;;20.66;100.00
11099;BME280;12223;42.650;23.364;2023-06-24T02:30:56;94730.16;;;20.62;100.00
11099;BME280;12223;42.650;23.364;2023-06-24T02:33:24;94720.06;;;20.54;100.00
11099;BME280;12223;42.650;23.364;2023-06-24T02:35:51;94732.84;;;20.62;100.00
11099;BME280;12223;42.650;23.364;2023-06-24T02:38:19;94749.63;;;20.49;100.00
11099;BME280;12223;42.650;23.364;2023-06-24T02:40:46;94755.72;;;20.54;100.00
11099;BME280;12223;42.650;23.364;2023-06-24T02:43:13;94760.09;;;20.45;100.00
11099;BME280;12223;42.650;23.364;2023-06-24T02:45:41;94723.78;;;20.19;100.00
11099;BME280;12223;42.650;23.364;2023-06-24T02:48:09;94739.75;;;20.39;100.00
11099;BME280;12223;42.650;23.364;2023-06-24T02:50:37;94730.63;;;20.40;100.00
11099;BME280;12223;42.650;23.364;2023-06-24T02:53:07;94731.94;;;20.42;100.00
11099;BME280;12223;42.650;23.364;2023-06-24T02:55:35;94732.25;;;20.41;100.00
11099;BME280;12223;42.650;23.364;2023-06-24T02:58:04;94729.59;;;20.31;100.00
11099;BME280;12223;42.650;23.364;2023-06-24T03:00:33;94728.78;;;20.30;100.00
11099;BME280;12223;42.650;23.364;2023-06-24T03:03:00;94744.06;;;20.30;100.00
11099;BME280;12223;42.650;23.364;2023-06-24T03:05:28;94748.06;;;20.37;100.00
11099;BME280;12223;42.650;23.364;2023-06-24T03:07:56;94752.78;;;20.51;100.00
11099;BME280;12223;42.650;23.364;2023-06-24T03:10:23;94751.06;;;20.65;100.00
11099;BME280;12223;42.650;23.364;2023-06-24T03:12:52;94731.69;;;20.73;100.00
11099;BME280;12223;42.650;23.364;2023-06-24T03:15:19;94728.41;;;20.76;100.00
11099;BME280;12223;42.650;23.364;2023-06-24T03:17:46;94767.06;;;21.04;100.00
11099;BME280;12223;42.650;23.364;2023-06-24T03:20:13;94773.00;;;21.30;100.00
11099;BME280;12223;42.650;23.364;2023-06-24T03:22:40;94773.19;;;21.57;100.00
11099;BME280;12223;42.650;23.364;2023-06-24T03:25:07;94789.38;;;21.94;100.00
11099;BME280;12223;42.650;23.364;2023-06-24T03:27:34;94791.88;;;22.28;100.00
11099;BME280;12223;42.650;23.364;2023-06-24T03:30:04;94795.50;;;22.56;100.00
11099;BME280;12223;42.650;23.364;2023-06-24T03:32:31;94815.97;;;22.76;100.00
11099;BME280;12223;42.650;23.364;2023-06-24T03:35:00;94830.59;;;23.16;100.00
11099;BME280;12223;42.650;23.364;2023-06-24T03:37:27;94845.56;;;23.54;100.00
11099;BME280;12223;42.650;23.364;2023-06-24T03:39:53;94847.25;;;24.05;100.00
11099;BME280;12223;42.650;23.364;2023-06-24T03:42:20;94849.44;;;24.66;100.00
11099;BME280;12223;42.650;23.364;2023-06-24T03:44:47;94858.38;;;25.34;100.00
11099;BME280;12223;42.650;23.364;2023-06-24T03:47:15;94858.72;;;26.11;100.00
11099;BME280;12223;42.650;23.364;2023-06-24T03:49:42;94859.47;;;26.86;98.82
11099;BME280;12223;42.650;23.364;2023-06-24T03:52:09;94866.41;;;27.47;92.53
11099;BME280;12223;42.650;23.364;2023-06-24T03:54:35;94871.94;;;28.14;86.57
11099;BME280;12223;42.650;23.364;2023-06-24T03:57:03;94865.22;;;28.70;77.62
11099;BME280;12223;42.650;23.364;2023-06-24T03:59:29;94868.56;;;29.30;71.30
11099;BME280;12223;42.650;23.364;2023-06-24T04:01:56;94858.63;;;29.79;68.22
11099;BME280;12223;42.650;23.364;2023-06-24T04:04:24;94857.97;;;30.30;65.42
11099;BME280;12223;42.650;23.364;2023-06-24T04:06:51;94861.94;;;30.69;60.78
11099;BME280;12223;42.650;23.364;2023-06-24T04:09:18;94869.66;;;31.20;58.04
11099;BME280;12223;42.650;23.364;2023-06-24T04:11:45;94865.47;;;31.81;55.68
11099;BME280;12223;42.650;23.364;2023-06-24T04:14:11;94874.75;;;32.40;53.30
11099;BME280;12223;42.650;23.364;2023-06-24T04:16:38;94876.53;;;33.02;51.69
11099;BME280;12223;42.650;23.364;2023-06-24T04:19:05;94875.03;;;33.62;49.29
11099;BME280;12223;42.650;23.364;2023-06-24T04:21:33;94865.31;;;34.10;47.42
11099;BME280;12223;42.650;23.364;2023-06-24T04:24:00;94859.34;;;34.50;46.19
11099;BME280;12223;42.650;23.364;2023-06-24T04:26:27;94868.88;;;35.16;44.25
11099;BME280;12223;42.650;23.364;2023-06-24T04:28:54;94860.16;;;35.70;42.72
11099;BME280;12223;42.650;23.364;2023-06-24T04:31:20;94865.06;;;36.35;40.28
11099;BME280;12223;42.650;23.364;2023-06-24T04:33:47;94853.63;;;36.84;38.77
11099;BME280;12223;42.650;23.364;2023-06-24T04:36:31;94857.03;;;37.39;37.78
11099;BME280;12223;42.650;23.364;2023-06-24T04:38:59;94849.38;;;38.12;36.39
11099;BME280;12223;42.650;23.364;2023-06-24T04:41:26;94849.34;;;38.73;35.03
11099;BME280;12223;42.650;23.364;2023-06-24T04:43:52;94862.16;;;39.47;33.67
11099;BME280;12223;42.650;23.364;2023-06-24T04:46:19;94853.16;;;40.05;32.21
11099;BME280;12223;42.650;23.364;2023-06-24T04:48:47;94863.84;;;40.54;31.47
11099;BME280;12223;42.650;23.364;2023-06-24T04:51:14;94868.50;;;40.68;30.81
11099;BME280;12223;42.650;23.364;2023-06-24T04:53:41;94869.31;;;40.65;30.52
11099;BME280;12223;42.650;23.364;2023-06-24T04:56:09;94861.91;;;40.92;29.61
11099;BME280;12223;42.650;23.364;2023-06-24T04:58:36;94866.09;;;40.70;29.08
11099;BME280;12223;42.650;23.364;2023-06-24T05:01:09;94873.19;;;40.27;29.98
11099;BME280;12223;42.650;23.364;2023-06-24T05:03:36;94875.75;;;39.96;30.51
11099;BME280;12223;42.650;23.364;2023-06-24T05:06:03;94859.19;;;38.95;31.72
11099;BME280;12223;42.650;23.364;2023-06-24T05:08:30;94864.72;;;38.45;32.69
11099;BME280;12223;42.650;23.364;2023-06-24T05:10:56;94863.56;;;38.29;32.30
11099;BME280;12223;42.650;23.364;2023-06-24T05:13:27;94871.38;;;37.80;33.19
11099;BME280;12223;42.650;23.364;2023-06-24T05:15:54;94865.13;;;38.65;31.43
11099;BME280;12223;42.650;23.364;2023-06-24T05:18:21;94866.31;;;38.53;31.35
11099;BME280;12223;42.650;23.364;2023-06-24T05:20:48;94858.75;;;39.07;30.90
11099;BME280;12223;42.650;23.364;2023-06-24T05:23:15;94860.50;;;39.60;30.01
11099;BME280;12223;42.650;23.364;2023-06-24T05:25:41;94850.78;;;40.07;29.45
11099;BME280;12223;42.650;23.364;2023-06-24T05:28:08;94835.59;;;39.67;29.78
11099;BME280;12223;42.650;23.364;2023-06-24T05:30:37;94853.13;;;37.48;32.01
11099;BME280;12223;42.650;23.364;2023-06-24T05:33:04;94844.41;;;34.74;36.51
11099;BME280;12223;42.650;23.364;2023-06-24T05:35:31;94853.88;;;32.16;42.45
11099;BME280;12223;42.650;23.364;2023-06-24T05:37:57;94848.91;;;30.26;48.64
11099;BME280;12223;42.650;23.364;2023-06-24T05:40:24;94856.25;;;29.11;55.41
11099;BME280;12223;42.650;23.364;2023-06-24T05:42:51;94853.13;;;28.89;60.35
11099;BME280;12223;42.650;23.364;2023-06-24T05:45:18;94848.44;;;28.68;63.23
11099;BME280;12223;42.650;23.364;2023-06-24T05:47:46;94844.19;;;28.38;67.03
11099;BME280;12223;42.650;23.364;2023-06-24T05:50:13;94849.66;;;28.00;72.03
11099;BME280;12223;42.650;23.364;2023-06-24T05:52:40;94843.28;;;27.49;78.02
11099;BME280;12223;42.650;23.364;2023-06-24T05:55:08;94843.91;;;27.46;83.77
11099;BME280;12223;42.650;23.364;2023-06-24T05:57:35;94843.63;;;27.39;87.39
11099;BME280;12223;42.650;23.364;2023-06-24T06:00:02;94836.13;;;27.36;85.06
11099;BME280;12223;42.650;23.364;2023-06-24T06:02:31;94827.22;;;27.27;88.21
11099;BME280;12223;42.650;23.364;2023-06-24T06:04:59;94843.69;;;26.96;89.58
11099;BME280;12223;42.650;23.364;2023-06-24T06:07:26;94828.09;;;26.93;90.56
11099;BME280;12223;42.650;23.364;2023-06-24T06:09:59;94825.03;;;27.12;88.17
11099;BME280;12223;42.650;23.364;2023-06-24T06:12:26;94824.41;;;26.89;86.89
11099;BME280;12223;42.650;23.364;2023-06-24T06:14:53;94817.56;;;26.92;85.77
11099;BME280;12223;42.650;23.364;2023-06-24T06:17:20;94824.38;;;27.06;84.60
11099;BME280;12223;42.650;23.364;2023-06-24T06:19:46;94829.34;;;26.96;86.68
11099;BME280;12223;42.650;23.364;2023-06-24T06:22:15;94828.72;;;26.99;90.38
11099;BME280;12223;42.650;23.364;2023-06-24T06:24:41;94832.19;;;27.25;89.11
11099;BME280;12223;42.650;23.364;2023-06-24T06:27:09;94825.75;;;27.38;84.73
11099;BME280;12223;42.650;23.364;2023-06-24T06:29:36;94829.38;;;27.51;83.35
11099;BME280;12223;42.650;23.364;2023-06-24T06:32:04;94826.47;;;27.65;82.58
11099;BME280;12223;42.650;23.364;2023-06-24T06:34:31;94830.47;;;27.76;80.90
11099;BME280;12223;42.650;23.364;2023-06-24T06:36:57;94839.72;;;27.75;84.63
11099;BME280;12223;42.650;23.364;2023-06-24T06:39:26;94828.56;;;27.68;80.48
11099;BME280;12223;42.650;23.364;2023-06-24T06:41:52;94840.19;;;28.06;78.78
11099;BME280;12223;42.650;23.364;2023-06-24T06:44:19;94842.91;;;28.06;80.99
11099;BME280;12223;42.650;23.364;2023-06-24T06:46:46;94836.69;;;28.06;77.89
11099;BME280;12223;42.650;23.364;2023-06-24T06:49:13;94844.38;;;27.95;78.59
11099;BME280;12223;42.650;23.364;2023-06-24T06:51:40;94842.44;;;27.66;81.58
11099;BME280;12223;42.650;23.364;2023-06-24T06:54:07;94845.66;;;27.97;78.72
11099;BME280;12223;42.650;23.364;2023-06-24T06:56:35;94837.94;;;28.17;77.53
11099;BME280;12223;42.650;23.364;2023-06-24T06:59:01;94837.72;;;28.22;74.71
11099;BME280;12223;42.650;23.364;2023-06-24T07:01:28;94812.53;;;28.13;77.81
11099;BME280;12223;42.650;23.364;2023-06-24T07:03:55;94841.41;;;28.47;75.43
11099;BME280;12223;42.650;23.364;2023-06-24T07:06:22;94837.59;;;28.89;73.42
11099;BME280;12223;42.650;23.364;2023-06-24T07:08:49;94834.75;;;29.18;71.49
11099;BME280;12223;42.650;23.364;2023-06-24T07:11:15;94838.38;;;28.69;69.89
11099;BME280;12223;42.650;23.364;2023-06-24T07:13:43;94822.63;;;28.83;72.00
11099;BME280;12223;42.650;23.364;2023-06-24T07:16:11;94839.00;;;28.95;72.67
11099;BME280;12223;42.650;23.364;2023-06-24T07:18:38;94840.13;;;28.94;72.13
11099;BME280;12223;42.650;23.364;2023-06-24T07:21:05;94846.16;;;29.33;70.70
11099;BME280;12223;42.650;23.364;2023-06-24T07:23:32;94844.84;;;29.18;71.21
11099;BME280;12223;42.650;23.364;2023-06-24T07:25:58;94845.56;;;28.94;74.31
11099;BME280;12223;42.650;23.364;2023-06-24T07:28:25;94838.63;;;28.97;76.03
11099;BME280;12223;42.650;23.364;2023-06-24T07:30:53;94843.13;;;29.13;75.08
11099;BME280;12223;42.650;23.364;2023-06-24T07:33:20;94839.16;;;29.11;75.49
11099;BME280;12223;42.650;23.364;2023-06-24T07:35:47;94836.78;;;29.22;73.71
11099;BME280;12223;42.650;23.364;2023-06-24T07:38:14;94834.53;;;29.24;72.98
11099;BME280;12223;42.650;23.364;2023-06-24T07:40:40;94835.91;;;29.30;74.15
11099;BME280;12223;42.650;23.364;2023-06-24T07:43:07;94832.88;;;29.64;70.68
11099;BME280;12223;42.650;23.364;2023-06-24T07:45:34;94837.66;;;29.91;73.26
11099;BME280;12223;42.650;23.364;2023-06-24T07:48:02;94830.56;;;29.54;69.45
11099;BME280;12223;42.650;23.364;2023-06-24T07:50:30;94827.34;;;29.07;71.54
11099;BME280;12223;42.650;23.364;2023-06-24T07:52:57;94825.50;;;28.99;73.38
11099;BME280;12223;42.650;23.364;2023-06-24T07:55:24;94833.50;;;29.16;76.63
11099;BME280;12223;42.650;23.364;2023-06-24T07:57:51;94833.88;;;28.94;74.43
11099;BME280;12223;42.650;23.364;2023-06-24T08:00:18;94830.88;;;29.07;73.49
11099;BME280;12223;42.650;23.364;2023-06-24T08:02:45;94832.41;;;29.29;73.24
11099;BME280;12223;42.650;23.364;2023-06-24T08:05:13;94831.69;;;29.53;73.88
11099;BME280;12223;42.650;23.364;2023-06-24T08:07:40;94841.53;;;29.33;76.66
11099;BME280;12223;42.650;23.364;2023-06-24T08:10:07;94844.38;;;28.83;75.31
11099;BME280;12223;42.650;23.364;2023-06-24T08:12:34;94843.00;;;28.68;76.50
11099;BME280;12223;42.650;23.364;2023-06-24T08:15:01;94828.16;;;29.07;75.00
11099;BME280;12223;42.650;23.364;2023-06-24T08:17:28;94835.13;;;29.62;72.12
11099;BME280;12223;42.650;23.364;2023-06-24T08:19:54;94832.19;;;29.79;71.91
11099;BME280;12223;42.650;23.364;2023-06-24T08:22:22;94833.91;;;29.84;70.68
11099;BME280;12223;42.650;23.364;2023-06-24T08:24:49;94840.66;;;29.53;69.01
11099;BME280;12223;42.650;23.364;2023-06-24T08:27:16;94833.72;;;29.11;72.86
11099;BME280;12223;42.650;23.364;2023-06-24T08:29:43;94831.75;;;28.99;76.76
11099;BME280;12223;42.650;23.364;2023-06-24T08:32:09;94831.31;;;29.09;75.05
11099;BME280;12223;42.650;23.364;2023-06-24T08:34:36;94826.00;;;29.34;72.37
11099;BME280;12223;42.650;23.364;2023-06-24T08:37:03;94820.16;;;29.68;71.78
11099;BME280;12223;42.650;23.364;2023-06-24T08:39:31;94816.56;;;30.01;68.53
11099;BME280;12223;42.650;23.364;2023-06-24T08:41:58;94816.09;;;30.35;66.14
11099;BME280;12223;42.650;23.364;2023-06-24T08:44:25;94816.75;;;30.56;63.63
11099;BME280;12223;42.650;23.364;2023-06-24T08:46:52;94822.56;;;30.18;62.02
11099;BME280;12223;42.650;23.364;2023-06-24T08:49:27;94813.81;;;30.37;61.97
11099;BME280;12223;42.650;23.364;2023-06-24T08:51:59;94803.03;;;30.53;58.92
11099;BME280;12223;42.650;23.364;2023-06-24T08:54:26;94804.97;;;30.80;60.20
11099;BME280;12223;42.650;23.364;2023-06-24T08:56:55;94799.94;;;30.94;58.92
11099;BME280;12223;42.650;23.364;2023-06-24T08:59:22;94807.09;;;31.27;56.93
11099;BME280;12223;42.650;23.364;2023-06-24T09:01:50;94808.97;;;31.54;55.45
11099;BME280;12223;42.650;23.364;2023-06-24T09:04:16;94807.00;;;31.67;56.54
11099;BME280;12223;42.650;23.364;2023-06-24T09:06:43;94812.53;;;31.86;55.64
11099;BME280;12223;42.650;23.364;2023-06-24T09:09:17;94804.16;;;31.94;55.45
11099;BME280;12223;42.650;23.364;2023-06-24T09:11:51;94801.63;;;31.86;57.31
11099;BME280;12223;42.650;23.364;2023-06-24T09:14:20;94804.41;;;31.89;56.07
11099;BME280;12223;42.650;23.364;2023-06-24T09:16:54;94798.41;;;32.00;55.45
11099;BME280;12223;42.650;23.364;2023-06-24T09:19:21;94798.06;;;32.01;55.09
11099;BME280;12223;42.650;23.364;2023-06-24T09:21:48;94804.78;;;32.04;54.20
11099;BME280;12223;42.650;23.364;2023-06-24T09:24:17;94801.00;;;31.77;55.46
11099;BME280;12223;42.650;23.364;2023-06-24T09:26:43;94761.25;;;31.48;53.93
11099;BME280;12223;42.650;23.364;2023-06-24T09:29:12;94810.41;;;31.64;53.80
11099;BME280;12223;42.650;23.364;2023-06-24T09:31:47;94809.34;;;31.68;53.95
11099;BME280;12223;42.650;23.364;2023-06-24T09:34:15;94804.22;;;31.35;53.59
11099;BME280;12223;42.650;23.364;2023-06-24T09:36:43;94816.84;;;31.28;55.21
11099;BME280;12223;42.650;23.364;2023-06-24T09:39:10;94810.03;;;31.06;54.18
11099;BME280;12223;42.650;23.364;2023-06-24T09:41:40;94817.66;;;31.28;54.48
11099;BME280;12223;42.650;23.364;2023-06-24T09:44:08;94805.75;;;31.36;53.23
11099;BME280;12223;42.650;23.364;2023-06-24T09:46:35;94801.03;;;31.33;53.40
11099;BME280;12223;42.650;23.364;2023-06-24T09:49:04;94804.75;;;31.56;53.78
11099;BME280;12223;42.650;23.364;2023-06-24T09:51:32;94805.66;;;31.76;53.87
11099;BME280;12223;42.650;23.364;2023-06-24T09:54:02;94803.97;;;31.87;54.09
11099;BME280;12223;42.650;23.364;2023-06-24T09:56:29;94795.78;;;31.87;51.03
11099;BME280;12223;42.650;23.364;2023-06-24T09:58:56;94802.84;;;31.88;51.31
11099;BME280;12223;42.650;23.364;2023-06-24T10:01:23;94801.59;;;31.54;51.48
11099;BME280;12223;42.650;23.364;2023-06-24T10:03:50;94791.88;;;31.41;51.88
11099;BME280;12223;42.650;23.364;2023-06-24T10:06:19;94787.72;;;31.16;52.90
11099;BME280;12223;42.650;23.364;2023-06-24T10:08:46;94781.16;;;31.05;52.68
11099;BME280;12223;42.650;23.364;2023-06-24T10:11:13;94777.53;;;30.73;54.32
11099;BME280;12223;42.650;23.364;2023-06-24T10:13:39;94774.31;;;30.99;55.18
11099;BME280;12223;42.650;23.364;2023-06-24T10:16:06;94769.09;;;30.78;53.12
11099;BME280;12223;42.650;23.364;2023-06-24T10:18:34;94773.56;;;30.70;55.17
11099;BME280;12223;42.650;23.364;2023-06-24T10:21:02;94767.72;;;30.84;56.56
11099;BME280;12223;42.650;23.364;2023-06-24T10:23:40;94753.31;;;30.99;52.69
11099;BME280;12223;42.650;23.364;2023-06-24T10:26:08;94749.50;;;30.88;54.58
11099;BME280;12223;42.650;23.364;2023-06-24T10:29:09;94747.16;;;30.74;54.38
11099;BME280;12223;42.650;23.364;2023-06-24T10:31:54;94743.69;;;30.62;55.00
11099;BME280;12223;42.650;23.364;2023-06-24T10:34:29;94749.16;;;30.62;54.69
11099;BME280;12223;42.650;23.364;2023-06-24T10:36:59;94737.50;;;30.49;56.05
11099;BME280;12223;42.650;23.364;2023-06-24T10:39:38;94727.72;;;30.60;53.82
11099;BME280;12223;42.650;23.364;2023-06-24T10:42:30;94722.50;;;30.83;53.85
11099;BME280;12223;42.650;23.364;2023-06-24T10:44:58;94716.88;;;30.92;53.00
11099;BME280;12223;42.650;23.364;2023-06-24T10:47:25;94714.47;;;31.18;51.89
11099;BME280;12223;42.650;23.364;2023-06-24T10:49:53;94709.81;;;31.34;52.57
11099;BME280;12223;42.650;23.364;2023-06-24T10:52:21;94704.34;;;31.19;53.30
11099;BME280;12223;42.650;23.364;2023-06-24T10:54:50;94697.88;;;30.95;53.22
11099;BME280;12223;42.650;23.364;2023-06-24T10:57:31;94702.06;;;30.77;53.76
11099;BME280;12223;42.650;23.364;2023-06-24T10:59:57;94701.28;;;30.76;52.09
11099;BME280;12223;42.650;23.364;2023-06-24T11:02:25;94700.56;;;30.80;52.83
11099;BME280;12223;42.650;23.364;2023-06-24T11:04:53;94706.31;;;30.62;50.69
11099;BME280;12223;42.650;23.364;2023-06-24T11:07:22;94696.03;;;30.56;49.25
11099;BME280;12223;42.650;23.364;2023-06-24T11:10:00;94694.53;;;30.58;51.49
11099;BME280;12223;42.650;23.364;2023-06-24T11:12:29;94685.59;;;30.73;52.59
11099;BME280;12223;42.650;23.364;2023-06-24T11:14:57;94687.28;;;30.78;50.17
11099;BME280;12223;42.650;23.364;2023-06-24T11:17:24;94689.91;;;30.74;50.49
11099;BME280;12223;42.650;23.364;2023-06-24T11:19:52;94694.88;;;31.00;47.74
11099;BME280;12223;42.650;23.364;2023-06-24T11:22:19;94688.34;;;31.33;47.65
11099;BME280;12223;42.650;23.364;2023-06-24T11:24:46;94694.66;;;31.37;46.43
11099;BME280;12223;42.650;23.364;2023-06-24T11:27:14;94673.91;;;31.48;45.14
11099;BME280;12223;42.650;23.364;2023-06-24T11:29:41;94690.16;;;31.76;44.23
11099;BME280;12223;42.650;23.364;2023-06-24T11:32:08;94692.66;;;32.16;43.81
11099;BME280;12223;42.650;23.364;2023-06-24T11:34:35;94693.03;;;32.53;42.42
11099;BME280;12223;42.650;23.364;2023-06-24T11:37:10;94699.19;;;32.88;42.09
11099;BME280;12223;42.650;23.364;2023-06-24T11:39:37;94696.00;;;33.05;40.97
11099;BME280;12223;42.650;23.364;2023-06-24T11:42:06;94692.03;;;32.80;40.30
11099;BME280;12223;42.650;23.364;2023-06-24T11:44:35;94690.88;;;32.62;42.20
11099;BME280;12223;42.650;23.364;2023-06-24T11:47:05;94676.47;;;32.26;43.16
11099;BME280;12223;42.650;23.364;2023-06-24T11:49:47;94678.88;;;32.12;44.13
11099;BME280;12223;42.650;23.364;2023-06-24T11:52:14;94670.28;;;32.29;44.23
11099;BME280;12223;42.650;23.364;2023-06-24T11:54:41;94662.66;;;32.58;43.37
11099;BME280;12223;42.650;23.364;2023-06-24T11:57:08;94662.22;;;32.94;40.79
11099;BME280;12223;42.650;23.364;2023-06-24T11:59:39;94649.06;;;33.49;41.57
11099;BME280;12223;42.650;23.364;2023-06-24T12:02:06;94649.84;;;33.72;42.18
11099;BME280;12223;42.650;23.364;2023-06-24T12:04:33;94632.06;;;33.63;41.42
11099;BME280;12223;42.650;23.364;2023-06-24T12:07:00;94645.69;;;33.82;41.29
11099;BME280;12223;42.650;23.364;2023-06-24T12:09:28;94610.66;;;33.19;40.31
11099;BME280;12223;42.650;23.364;2023-06-24T12:11:55;94620.84;;;33.45;40.01
11099;BME280;12223;42.650;23.364;2023-06-24T12:14:22;94619.28;;;33.70;40.86
11099;BME280;12223;42.650;23.364;2023-06-24T12:16:50;94625.44;;;33.64;41.08
11099;BME280;12223;42.650;23.364;2023-06-24T12:19:17;94623.66;;;33.75;40.42
11099;BME280;12223;42.650;23.364;2023-06-24T12:21:45;94625.38;;;33.60;40.43
11099;BME280;12223;42.650;23.364;2023-06-24T12:24:12;94619.81;;;33.07;40.42
11099;BME280;12223;42.650;23.364;2023-06-24T12:26:39;94624.06;;;32.82;43.49
11099;BME280;12223;42.650;23.364;2023-06-24T12:29:05;94623.44;;;32.69;42.89
11099;BME280;12223;42.650;23.364;2023-06-24T12:31:32;94619.28;;;32.56;44.49
11099;BME280;12223;42.650;23.364;2023-06-24T12:34:00;94628.19;;;32.72;44.61
11099;BME280;12223;42.650;23.364;2023-06-24T12:36:27;94630.97;;;32.76;43.20
11099;BME280;12223;42.650;23.364;2023-06-24T12:38:54;94638.38;;;32.76;43.79
11099;BME280;12223;42.650;23.364;2023-06-24T12:41:21;94638.03;;;32.77;44.56
11099;BME280;12223;42.650;23.364;2023-06-24T12:43:47;94650.25;;;32.64;45.13
11099;BME280;12223;42.650;23.364;2023-06-24T12:46:14;94652.44;;;32.74;44.98
11099;BME280;12223;42.650;23.364;2023-06-24T12:48:41;94659.63;;;32.82;45.17
11099;BME280;12223;42.650;23.364;2023-06-24T12:51:10;94664.94;;;32.94;43.36
11099;BME280;12223;42.650;23.364;2023-06-24T12:53:37;94668.75;;;32.90;44.11